sensor_id;sensor_type;location;lat;lon;timestamp;P1;durP1;ratioP1;P2;durP2;ratioP2
21810;SDS011;11067;48.788;9.208;2022-08-03T00:01:52;5.73;;;4.20;;
21810;SDS011;11067;48.788;9.208;2022-08-03T00:04:18;5.50;;;3.88;;
21810;SDS011;11067;48.788;9.208;2022-08-03T00:06:43;7.10;;;3.97;;
21810;SDS011;11067;48.788;9.208;2022-08-03T00:09:09;6.80;;;4.32;;
21810;SDS011;11067;48.788;9.208;2022-08-03T00:11:35;5.38;;;4.38;;
21810;SDS011;11067;48.788;9.208;2022-08-03T00:14:01;4.63;;;4.13;;
21810;SDS011;11067;48.788;9.208;2022-08-03T00:16:27;5.22;;;4.13;;
21810;SDS011;11067;48.788;9.208;2022-08-03T00:18:53;4.87;;;3.73;;
21810;SDS011;11067;48.788;9.208;2022-08-03T00:21:18;6.57;;;4.00;;
21810;SDS011;11067;48.788;9.208;2022-08-03T00:23:44;9.43;;;3.90;;
21810;SDS011;11067;48.788;9.208;2022-08-03T00:26:09;10.43;;;4.00;;
21810;SDS011;11067;48.788;9.208;2022-08-03T00:28:35;6.45;;;4.05;;
21810;SDS011;11067;48.788;9.208;2022-08-03T00:31:00;5.80;;;4.43;;
21810;SDS011;11067;48.788;9.208;2022-08-03T00:33:26;4.90;;;3.80;;
21810;SDS011;11067;48.788;9.208;2022-08-03T00:35:51;5.27;;;4.23;;
21810;SDS011;11067;48.788;9.208;2022-08-03T00:38:18;6.18;;;4.20;;
21810;SDS011;11067;48.788;9.208;2022-08-03T00:40:44;4.32;;;3.92;;
21810;SDS011;11067;48.788;9.208;2022-08-03T00:43:10;4.68;;;4.03;;
21810;SDS011;11067;48.788;9.208;2022-08-03T00:45:37;5.27;;;4.10;;
21810;SDS011;11067;48.788;9.208;2022-08-03T00:48:05;6.00;;;4.00;;
21810;SDS011;11067;48.788;9.208;2022-08-03T00:50:33;5.18;;;4.03;;
21810;SDS011;11067;48.788;9.208;2022-08-03T00:53:00;4.68;;;4.05;;
21810;SDS011;11067;48.788;9.208;2022-08-03T00:55:28;6.00;;;4.40;;
21810;SDS011;11067;48.788;9.208;2022-08-03T00:57:53;6.67;;;4.10;;
21810;SDS011;11067;48.788;9.208;2022-08-03T01:00:21;5.50;;;4.30;;
21810;SDS011;11067;48.788;9.208;2022-08-03T01:02:48;6.68;;;4.03;;
21810;SDS011;11067;48.788;9.208;2022-08-03T01:05:14;6.10;;;3.85;;
21810;SDS011;11067;48.788;9.208;2022-08-03T01:07:56;5.00;;;4.20;;
21810;SDS011;11067;48.788;9.208;2022-08-03T01:15:35;6.15;;;4.50;;
21810;SDS011;11067;48.788;9.208;2022-08-03T01:18:19;4.60;;;3.90;;
21810;SDS011;11067;48.788;9.208;2022-08-03T01:20:50;4.47;;;3.80;;
21810;SDS011;11067;48.788;9.208;2022-08-03T01:23:26;6.07;;;4.13;;
21810;SDS011;11067;48.788;9.208;2022-08-03T01:26:24;5.55;;;4.10;;
21810;SDS011;11067;48.788;9.208;2022-08-03T01:31:47;4.85;;;4.07;;
21810;SDS011;11067;48.788;9.208;2022-08-03T01:34:23;5.60;;;4.07;;
21810;SDS011;11067;48.788;9.208;2022-08-03T01:36:53;6.88;;;4.28;;
21810;SDS011;11067;48.788;9.208;2022-08-03T01:39:23;5.32;;;4.05;;
21810;SDS011;11067;48.788;9.208;2022-08-03T01:41:55;7.43;;;4.63;;
21810;SDS011;11067;48.788;9.208;2022-08-03T01:44:23;6.30;;;4.70;;
21810;SDS011;11067;48.788;9.208;2022-08-03T01:46:53;6.22;;;4.45;;
21810;SDS011;11067;48.788;9.208;2022-08-03T01:49:24;5.47;;;4.50;;
21810;SDS011;11067;48.788;9.208;2022-08-03T01:51:52;4.85;;;4.32;;
21810;SDS011;11067;48.788;9.208;2022-08-03T01:54:19;6.03;;;4.47;;
21810;SDS011;11067;48.788;9.208;2022-08-03T01:56:47;5.85;;;4.80;;
21810;SDS011;11067;48.788;9.208;2022-08-03T01:59:15;5.15;;;4.20;;
21810;SDS011;11067;48.788;9.208;2022-08-03T02:01:42;5.70;;;4.53;;
21810;SDS011;11067;48.788;9.208;2022-08-03T02:04:10;5.15;;;4.65;;
21810;SDS011;11067;48.788;9.208;2022-08-03T02:06:38;5.57;;;4.50;;
21810;SDS011;11067;48.788;9.208;2022-08-03T02:09:04;5.68;;;4.55;;
21810;SDS011;11067;48.788;9.208;2022-08-03T02:11:31;5.63;;;4.47;;
21810;SDS011;11067;48.788;9.208;2022-08-03T02:14:00;5.80;;;4.38;;
21810;SDS011;11067;48.788;9.208;2022-08-03T02:16:28;8.52;;;4.32;;
21810;SDS011;11067;48.788;9.208;2022-08-03T02:18:57;6.40;;;4.80;;
21810;SDS011;11067;48.788;9.208;2022-08-03T02:21:24;5.70;;;4.30;;
21810;SDS011;11067;48.788;9.208;2022-08-03T02:23:52;6.18;;;4.95;;
21810;SDS011;11067;48.788;9.208;2022-08-03T02:26:18;6.07;;;4.55;;
21810;SDS011;11067;48.788;9.208;2022-08-03T02:28:46;5.35;;;4.20;;
21810;SDS011;11067;48.788;9.208;2022-08-03T02:31:16;5.80;;;3.83;;
21810;SDS011;11067;48.788;9.208;2022-08-03T02:33:47;5.28;;;4.32;;
21810;SDS011;11067;48.788;9.208;2022-08-03T02:36:14;4.93;;;4.28;;
21810;SDS011;11067;48.788;9.208;2022-08-03T02:38:48;4.57;;;4.10;;
21810;SDS011;11067;48.788;9.208;2022-08-03T02:41:17;5.25;;;4.57;;
21810;SDS011;11067;48.788;9.208;2022-08-03T02:43:49;7.70;;;4.43;;
21810;SDS011;11067;48.788;9.208;2022-08-03T02:46:18;6.97;;;4.45;;
21810;SDS011;11067;48.788;9.208;2022-08-03T02:48:46;7.20;;;4.25;;
21810;SDS011;11067;48.788;9.208;2022-08-03T02:51:14;5.00;;;4.32;;
21810;SDS011;11067;48.788;9.208;2022-08-03T02:53:42;5.57;;;4.53;;
21810;SDS011;11067;48.788;9.208;2022-08-03T02:56:09;7.18;;;4.70;;
21810;SDS011;11067;48.788;9.208;2022-08-03T02:58:36;5.75;;;4.47;;
21810;SDS011;11067;48.788;9.208;2022-08-03T03:01:04;5.45;;;4.53;;
21810;SDS011;11067;48.788;9.208;2022-08-03T03:03:30;6.05;;;4.80;;
21810;SDS011;11067;48.788;9.208;2022-08-03T03:05:57;4.72;;;4.32;;
21810;SDS011;11067;48.788;9.208;2022-08-03T03:08:23;6.78;;;4.97;;
21810;SDS011;11067;48.788;9.208;2022-08-03T03:10:50;8.25;;;4.50;;
21810;SDS011;11067;48.788;9.208;2022-08-03T03:13:16;4.78;;;4.25;;
21810;SDS011;11067;48.788;9.208;2022-08-03T03:15:44;6.15;;;4.57;;
21810;SDS011;11067;48.788;9.208;2022-08-03T03:18:11;4.90;;;4.40;;
21810;SDS011;11067;48.788;9.208;2022-08-03T03:20:39;5.40;;;4.20;;
21810;SDS011;11067;48.788;9.208;2022-08-03T03:23:05;6.78;;;4.63;;
21810;SDS011;11067;48.788;9.208;2022-08-03T03:25:32;7.18;;;4.68;;
21810;SDS011;11067;48.788;9.208;2022-08-03T03:27:59;9.85;;;4.95;;
21810;SDS011;11067;48.788;9.208;2022-08-03T03:30:25;5.65;;;4.63;;
21810;SDS011;11067;48.788;9.208;2022-08-03T03:32:51;5.03;;;4.47;;
21810;SDS011;11067;48.788;9.208;2022-08-03T03:35:17;6.15;;;4.40;;
21810;SDS011;11067;48.788;9.208;2022-08-03T03:37:43;5.22;;;4.28;;
21810;SDS011;11067;48.788;9.208;2022-08-03T03:40:09;5.07;;;4.20;;
21810;SDS011;11067;48.788;9.208;2022-08-03T03:42:35;5.22;;;4.50;;
21810;SDS011;11067;48.788;9.208;2022-08-03T03:45:02;5.47;;;4.70;;
21810;SDS011;11067;48.788;9.208;2022-08-03T03:47:29;5.45;;;4.75;;
21810;SDS011;11067;48.788;9.208;2022-08-03T03:49:55;7.82;;;4.90;;
21810;SDS011;11067;48.788;9.208;2022-08-03T03:52:21;5.00;;;4.20;;
21810;SDS011;11067;48.788;9.208;2022-08-03T03:54:47;5.05;;;4.55;;
21810;SDS011;11067;48.788;9.208;2022-08-03T03:57:12;7.27;;;4.50;;
21810;SDS011;11067;48.788;9.208;2022-08-03T03:59:38;5.43;;;4.40;;
21810;SDS011;11067;48.788;9.208;2022-08-03T04:02:05;5.63;;;4.78;;
21810;SDS011;11067;48.788;9.208;2022-08-03T04:04:32;4.90;;;4.40;;
21810;SDS011;11067;48.788;9.208;2022-08-03T04:07:18;7.57;;;4.60;;
21810;SDS011;11067;48.788;9.208;2022-08-03T04:10:03;6.03;;;4.60;;
21810;SDS011;11067;48.788;9.208;2022-08-03T04:12:51;7.10;;;4.97;;
21810;SDS011;11067;48.788;9.208;2022-08-03T04:15:18;5.17;;;4.67;;
21810;SDS011;11067;48.788;9.208;2022-08-03T04:17:46;10.98;;;5.43;;
21810;SDS011;11067;48.788;9.208;2022-08-03T04:20:14;6.60;;;4.90;;
21810;SDS011;11067;48.788;9.208;2022-08-03T04:22:44;13.40;;;5.88;;
21810;SDS011;11067;48.788;9.208;2022-08-03T04:25:13;6.45;;;4.97;;
21810;SDS011;11067;48.788;9.208;2022-08-03T04:27:43;8.00;;;5.45;;
21810;SDS011;11067;48.788;9.208;2022-08-03T04:30:11;7.83;;;5.03;;
21810;SDS011;11067;48.788;9.208;2022-08-03T04:32:38;13.30;;;5.53;;
21810;SDS011;11067;48.788;9.208;2022-08-03T04:35:06;9.68;;;5.30;;
21810;SDS011;11067;48.788;9.208;2022-08-03T04:37:39;5.93;;;5.00;;
21810;SDS011;11067;48.788;9.208;2022-08-03T04:40:08;6.32;;;4.80;;
21810;SDS011;11067;48.788;9.208;2022-08-03T04:42:37;6.78;;;4.50;;
21810;SDS011;11067;48.788;9.208;2022-08-03T04:45:04;5.72;;;4.78;;
21810;SDS011;11067;48.788;9.208;2022-08-03T04:47:32;5.97;;;4.97;;
21810;SDS011;11067;48.788;9.208;2022-08-03T04:50:01;7.55;;;5.10;;
21810;SDS011;11067;48.788;9.208;2022-08-03T04:52:28;5.10;;;4.60;;
21810;SDS011;11067;48.788;9.208;2022-08-03T04:54:54;8.13;;;4.97;;
21810;SDS011;11067;48.788;9.208;2022-08-03T04:57:20;6.43;;;4.93;;
21810;SDS011;11067;48.788;9.208;2022-08-03T04:59:46;7.88;;;4.75;;
21810;SDS011;11067;48.788;9.208;2022-08-03T05:02:13;6.50;;;4.80;;
21810;SDS011;11067;48.788;9.208;2022-08-03T05:04:39;7.35;;;4.90;;
21810;SDS011;11067;48.788;9.208;2022-08-03T05:07:10;9.98;;;5.07;;
21810;SDS011;11067;48.788;9.208;2022-08-03T05:09:36;6.10;;;4.65;;
21810;SDS011;11067;48.788;9.208;2022-08-03T05:12:02;8.68;;;4.60;;
21810;SDS011;11067;48.788;9.208;2022-08-03T05:14:28;6.82;;;4.45;;
21810;SDS011;11067;48.788;9.208;2022-08-03T05:16:54;6.30;;;4.70;;
21810;SDS011;11067;48.788;9.208;2022-08-03T05:19:19;4.70;;;4.30;;
21810;SDS011;11067;48.788;9.208;2022-08-03T05:21:45;4.90;;;4.40;;
21810;SDS011;11067;48.788;9.208;2022-08-03T05:24:10;6.05;;;4.45;;
21810;SDS011;11067;48.788;9.208;2022-08-03T05:26:36;6.33;;;4.10;;
21810;SDS011;11067;48.788;9.208;2022-08-03T05:29:01;5.43;;;4.60;;
21810;SDS011;11067;48.788;9.208;2022-08-03T05:31:27;5.53;;;4.50;;
21810;SDS011;11067;48.788;9.208;2022-08-03T05:33:53;5.53;;;4.10;;
21810;SDS011;11067;48.788;9.208;2022-08-03T05:36:18;5.85;;;4.05;;
21810;SDS011;11067;48.788;9.208;2022-08-03T05:38:44;6.63;;;4.30;;
21810;SDS011;11067;48.788;9.208;2022-08-03T05:41:09;6.40;;;4.30;;
21810;SDS011;11067;48.788;9.208;2022-08-03T05:43:35;4.80;;;4.30;;
21810;SDS011;11067;48.788;9.208;2022-08-03T05:46:00;5.43;;;4.20;;
21810;SDS011;11067;48.788;9.208;2022-08-03T05:48:26;5.00;;;4.10;;
21810;SDS011;11067;48.788;9.208;2022-08-03T05:50:52;8.82;;;4.72;;
21810;SDS011;11067;48.788;9.208;2022-08-03T05:53:18;7.17;;;4.40;;
21810;SDS011;11067;48.788;9.208;2022-08-03T05:55:43;9.50;;;4.65;;
21810;SDS011;11067;48.788;9.208;2022-08-03T05:58:09;10.20;;;4.83;;
21810;SDS011;11067;48.788;9.208;2022-08-03T06:00:34;9.00;;;4.77;;
21810;SDS011;11067;48.788;9.208;2022-08-03T06:03:00;7.27;;;4.63;;
21810;SDS011;11067;48.788;9.208;2022-08-03T06:05:26;8.25;;;4.60;;
21810;SDS011;11067;48.788;9.208;2022-08-03T06:07:52;9.27;;;4.55;;
21810;SDS011;11067;48.788;9.208;2022-08-03T06:10:18;7.80;;;4.40;;
21810;SDS011;11067;48.788;9.208;2022-08-03T06:12:44;4.97;;;4.30;;
21810;SDS011;11067;48.788;9.208;2022-08-03T06:15:13;7.40;;;4.35;;
21810;SDS011;11067;48.788;9.208;2022-08-03T06:17:48;9.43;;;4.10;;
21810;SDS011;11067;48.788;9.208;2022-08-03T06:20:15;5.33;;;4.20;;
21810;SDS011;11067;48.788;9.208;2022-08-03T06:22:42;5.53;;;4.07;;
21810;SDS011;11067;48.788;9.208;2022-08-03T06:25:08;5.37;;;4.23;;
21810;SDS011;11067;48.788;9.208;2022-08-03T06:27:33;11.52;;;4.60;;
21810;SDS011;11067;48.788;9.208;2022-08-03T06:30:02;4.40;;;4.00;;
21810;SDS011;11067;48.788;9.208;2022-08-03T06:32:27;7.88;;;4.38;;
21810;SDS011;11067;48.788;9.208;2022-08-03T06:34:53;5.00;;;3.83;;
21810;SDS011;11067;48.788;9.208;2022-08-03T06:37:22;6.68;;;4.20;;
21810;SDS011;11067;48.788;9.208;2022-08-03T06:39:48;10.35;;;4.78;;
21810;SDS011;11067;48.788;9.208;2022-08-03T06:42:14;5.40;;;4.40;;
21810;SDS011;11067;48.788;9.208;2022-08-03T06:44:39;7.50;;;4.70;;
21810;SDS011;11067;48.788;9.208;2022-08-03T06:47:05;5.55;;;4.15;;
21810;SDS011;11067;48.788;9.208;2022-08-03T06:49:30;6.90;;;4.00;;
21810;SDS011;11067;48.788;9.208;2022-08-03T06:51:56;9.13;;;4.30;;
21810;SDS011;11067;48.788;9.208;2022-08-03T06:54:21;6.72;;;4.00;;
21810;SDS011;11067;48.788;9.208;2022-08-03T06:56:48;7.55;;;4.60;;
21810;SDS011;11067;48.788;9.208;2022-08-03T06:59:14;5.60;;;4.13;;
21810;SDS011;11067;48.788;9.208;2022-08-03T07:01:40;4.93;;;4.45;;
21810;SDS011;11067;48.788;9.208;2022-08-03T07:04:05;5.90;;;4.40;;
21810;SDS011;11067;48.788;9.208;2022-08-03T07:06:31;8.15;;;4.60;;
21810;SDS011;11067;48.788;9.208;2022-08-03T07:08:56;6.97;;;4.40;;
21810;SDS011;11067;48.788;9.208;2022-08-03T07:11:23;11.27;;;4.60;;
21810;SDS011;11067;48.788;9.208;2022-08-03T07:13:49;6.60;;;4.60;;
21810;SDS011;11067;48.788;9.208;2022-08-03T07:16:14;8.68;;;4.00;;
21810;SDS011;11067;48.788;9.208;2022-08-03T07:18:40;6.97;;;4.83;;
21810;SDS011;11067;48.788;9.208;2022-08-03T07:21:06;6.95;;;4.30;;
21810;SDS011;11067;48.788;9.208;2022-08-03T07:23:33;5.70;;;4.70;;
21810;SDS011;11067;48.788;9.208;2022-08-03T07:25:58;6.03;;;4.20;;
21810;SDS011;11067;48.788;9.208;2022-08-03T07:28:24;6.57;;;4.72;;
21810;SDS011;11067;48.788;9.208;2022-08-03T07:30:49;7.63;;;4.65;;
21810;SDS011;11067;48.788;9.208;2022-08-03T07:33:15;10.93;;;4.40;;
21810;SDS011;11067;48.788;9.208;2022-08-03T07:35:41;6.63;;;4.47;;
21810;SDS011;11067;48.788;9.208;2022-08-03T07:38:06;6.80;;;4.27;;
21810;SDS011;11067;48.788;9.208;2022-08-03T07:40:32;7.43;;;4.40;;
21810;SDS011;11067;48.788;9.208;2022-08-03T07:42:58;4.68;;;3.85;;
21810;SDS011;11067;48.788;9.208;2022-08-03T07:45:23;5.20;;;3.80;;
21810;SDS011;11067;48.788;9.208;2022-08-03T07:47:50;7.28;;;4.00;;
21810;SDS011;11067;48.788;9.208;2022-08-03T07:50:16;4.75;;;3.90;;
21810;SDS011;11067;48.788;9.208;2022-08-03T07:52:41;5.73;;;4.13;;
21810;SDS011;11067;48.788;9.208;2022-08-03T07:55:13;6.77;;;4.50;;
21810;SDS011;11067;48.788;9.208;2022-08-03T07:57:40;5.47;;;4.00;;
21810;SDS011;11067;48.788;9.208;2022-08-03T08:00:10;7.80;;;4.30;;
21810;SDS011;11067;48.788;9.208;2022-08-03T08:02:41;7.67;;;4.20;;
21810;SDS011;11067;48.788;9.208;2022-08-03T08:05:07;5.37;;;3.90;;
21810;SDS011;11067;48.788;9.208;2022-08-03T08:07:35;5.05;;;3.42;;
21810;SDS011;11067;48.788;9.208;2022-08-03T08:10:02;8.00;;;3.95;;
21810;SDS011;11067;48.788;9.208;2022-08-03T08:12:28;4.53;;;3.53;;
21810;SDS011;11067;48.788;9.208;2022-08-03T08:14:54;6.03;;;3.70;;
21810;SDS011;11067;48.788;9.208;2022-08-03T08:17:20;7.20;;;3.80;;
21810;SDS011;11067;48.788;9.208;2022-08-03T08:19:45;8.10;;;3.60;;
21810;SDS011;11067;48.788;9.208;2022-08-03T08:22:11;7.00;;;3.72;;
21810;SDS011;11067;48.788;9.208;2022-08-03T08:24:36;5.17;;;3.67;;
21810;SDS011;11067;48.788;9.208;2022-08-03T08:27:02;5.85;;;3.20;;
21810;SDS011;11067;48.788;9.208;2022-08-03T08:29:28;5.90;;;3.03;;
21810;SDS011;11067;48.788;9.208;2022-08-03T08:31:53;4.25;;;3.35;;
21810;SDS011;11067;48.788;9.208;2022-08-03T08:34:19;8.68;;;3.53;;
21810;SDS011;11067;48.788;9.208;2022-08-03T08:36:44;6.70;;;2.90;;
21810;SDS011;11067;48.788;9.208;2022-08-03T08:39:10;5.90;;;2.90;;
21810;SDS011;11067;48.788;9.208;2022-08-03T08:41:36;3.67;;;2.83;;
21810;SDS011;11067;48.788;9.208;2022-08-03T08:44:01;8.47;;;2.60;;
21810;SDS011;11067;48.788;9.208;2022-08-03T08:46:28;5.38;;;2.40;;
21810;SDS011;11067;48.788;9.208;2022-08-03T08:48:57;5.68;;;2.67;;
21810;SDS011;11067;48.788;9.208;2022-08-03T08:51:26;3.35;;;2.15;;
21810;SDS011;11067;48.788;9.208;2022-08-03T08:53:53;2.95;;;2.10;;
21810;SDS011;11067;48.788;9.208;2022-08-03T08:56:21;5.07;;;2.00;;
21810;SDS011;11067;48.788;9.208;2022-08-03T08:58:55;5.10;;;2.43;;
21810;SDS011;11067;48.788;9.208;2022-08-03T09:01:22;2.40;;;2.20;;
21810;SDS011;11067;48.788;9.208;2022-08-03T09:03:48;3.65;;;2.13;;
21810;SDS011;11067;48.788;9.208;2022-08-03T09:06:14;3.47;;;2.10;;
21810;SDS011;11067;48.788;9.208;2022-08-03T09:08:40;3.42;;;2.10;;
21810;SDS011;11067;48.788;9.208;2022-08-03T09:11:06;2.87;;;2.03;;
21810;SDS011;11067;48.788;9.208;2022-08-03T09:13:32;3.22;;;1.90;;
21810;SDS011;11067;48.788;9.208;2022-08-03T09:16:08;3.23;;;2.10;;
21810;SDS011;11067;48.788;9.208;2022-08-03T09:18:41;3.05;;;2.00;;
21810;SDS011;11067;48.788;9.208;2022-08-03T09:21:13;3.20;;;1.90;;
21810;SDS011;11067;48.788;9.208;2022-08-03T09:23:51;3.90;;;2.10;;
21810;SDS011;11067;48.788;9.208;2022-08-03T09:26:18;2.67;;;2.00;;
21810;SDS011;11067;48.788;9.208;2022-08-03T09:28:59;2.53;;;1.70;;
21810;SDS011;11067;48.788;9.208;2022-08-03T09:31:29;3.95;;;1.88;;
21810;SDS011;11067;48.788;9.208;2022-08-03T09:34:00;3.63;;;2.00;;
21810;SDS011;11067;48.788;9.208;2022-08-03T09:36:37;3.20;;;2.15;;
21810;SDS011;11067;48.788;9.208;2022-08-03T09:39:20;1.70;;;1.60;;
21810;SDS011;11067;48.788;9.208;2022-08-03T09:41:48;3.50;;;2.10;;
21810;SDS011;11067;48.788;9.208;2022-08-03T09:44:35;5.13;;;1.85;;
21810;SDS011;11067;48.788;9.208;2022-08-03T09:47:02;2.58;;;1.50;;
21810;SDS011;11067;48.788;9.208;2022-08-03T09:49:29;4.93;;;1.60;;
21810;SDS011;11067;48.788;9.208;2022-08-03T09:51:55;1.60;;;1.50;;
21810;SDS011;11067;48.788;9.208;2022-08-03T09:54:25;3.22;;;1.52;;
21810;SDS011;11067;48.788;9.208;2022-08-03T09:56:52;1.58;;;1.48;;
21810;SDS011;11067;48.788;9.208;2022-08-03T09:59:27;3.55;;;1.50;;
21810;SDS011;11067;48.788;9.208;2022-08-03T10:01:55;3.03;;;1.70;;
21810;SDS011;11067;48.788;9.208;2022-08-03T10:04:23;3.17;;;1.80;;
21810;SDS011;11067;48.788;9.208;2022-08-03T10:07:03;3.43;;;1.40;;
21810;SDS011;11067;48.788;9.208;2022-08-03T10:09:33;2.93;;;1.63;;
21810;SDS011;11067;48.788;9.208;2022-08-03T10:12:05;4.57;;;1.80;;
21810;SDS011;11067;48.788;9.208;2022-08-03T10:14:32;1.50;;;1.35;;
21810;SDS011;11067;48.788;9.208;2022-08-03T10:16:59;2.58;;;1.80;;
21810;SDS011;11067;48.788;9.208;2022-08-03T10:19:25;1.77;;;1.35;;
21810;SDS011;11067;48.788;9.208;2022-08-03T10:21:57;2.10;;;1.67;;
21810;SDS011;11067;48.788;9.208;2022-08-03T10:24:28;1.45;;;1.35;;
21810;SDS011;11067;48.788;9.208;2022-08-03T10:27:01;4.57;;;1.80;;
21810;SDS011;11067;48.788;9.208;2022-08-03T10:29:31;3.15;;;1.70;;
21810;SDS011;11067;48.788;9.208;2022-08-03T10:32:08;2.30;;;1.42;;
21810;SDS011;11067;48.788;9.208;2022-08-03T10:34:39;2.10;;;1.77;;
21810;SDS011;11067;48.788;9.208;2022-08-03T10:37:07;1.47;;;1.37;;
21810;SDS011;11067;48.788;9.208;2022-08-03T10:39:35;1.85;;;1.70;;
21810;SDS011;11067;48.788;9.208;2022-08-03T10:42:00;3.37;;;1.50;;
21810;SDS011;11067;48.788;9.208;2022-08-03T10:44:30;3.78;;;1.60;;
21810;SDS011;11067;48.788;9.208;2022-08-03T10:47:01;4.28;;;1.80;;
21810;SDS011;11067;48.788;9.208;2022-08-03T10:49:28;2.33;;;1.58;;
21810;SDS011;11067;48.788;9.208;2022-08-03T10:51:57;2.60;;;1.50;;
21810;SDS011;11067;48.788;9.208;2022-08-03T10:57:01;1.80;;;1.63;;
21810;SDS011;11067;48.788;9.208;2022-08-03T11:02:14;2.90;;;1.60;;
21810;SDS011;11067;48.788;9.208;2022-08-03T11:04:40;2.13;;;1.50;;
21810;SDS011;11067;48.788;9.208;2022-08-03T11:07:19;1.60;;;1.40;;
21810;SDS011;11067;48.788;9.208;2022-08-03T11:09:50;3.30;;;1.70;;
21810;SDS011;11067;48.788;9.208;2022-08-03T11:12:28;3.53;;;2.00;;
21810;SDS011;11067;48.788;9.208;2022-08-03T11:14:56;1.73;;;1.63;;
21810;SDS011;11067;48.788;9.208;2022-08-03T11:17:24;2.65;;;1.75;;
21810;SDS011;11067;48.788;9.208;2022-08-03T11:19:50;1.60;;;1.50;;
21810;SDS011;11067;48.788;9.208;2022-08-03T11:22:17;2.90;;;2.00;;
21810;SDS011;11067;48.788;9.208;2022-08-03T11:35:09;3.70;;;1.93;;
21810;SDS011;11067;48.788;9.208;2022-08-03T11:37:35;2.08;;;1.73;;
21810;SDS011;11067;48.788;9.208;2022-08-03T11:43:42;1.80;;;1.70;;
21810;SDS011;11067;48.788;9.208;2022-08-03T11:46:00;2.92;;;1.70;;
21810;SDS011;11067;48.788;9.208;2022-08-03T11:48:34;1.80;;;1.70;;
21810;SDS011;11067;48.788;9.208;2022-08-03T11:51:02;2.08;;;1.58;;
21810;SDS011;11067;48.788;9.208;2022-08-03T11:53:29;2.42;;;1.80;;
21810;SDS011;11067;48.788;9.208;2022-08-03T11:55:59;3.25;;;1.70;;
21810;SDS011;11067;48.788;9.208;2022-08-03T11:58:25;1.88;;;1.60;;
21810;SDS011;11067;48.788;9.208;2022-08-03T12:00:51;2.13;;;1.70;;
21810;SDS011;11067;48.788;9.208;2022-08-03T12:03:18;3.17;;;2.03;;
21810;SDS011;11067;48.788;9.208;2022-08-03T12:05:48;2.10;;;1.80;;
21810;SDS011;11067;48.788;9.208;2022-08-03T12:08:16;2.17;;;1.83;;
21810;SDS011;11067;48.788;9.208;2022-08-03T12:10:53;4.68;;;2.10;;
21810;SDS011;11067;48.788;9.208;2022-08-03T12:13:20;3.72;;;1.73;;
21810;SDS011;11067;48.788;9.208;2022-08-03T12:15:51;2.83;;;1.70;;
21810;SDS011;11067;48.788;9.208;2022-08-03T12:18:18;1.70;;;1.50;;
21810;SDS011;11067;48.788;9.208;2022-08-03T12:20:45;2.38;;;1.50;;
21810;SDS011;11067;48.788;9.208;2022-08-03T12:23:11;1.60;;;1.50;;
21810;SDS011;11067;48.788;9.208;2022-08-03T12:25:38;4.47;;;2.00;;
21810;SDS011;11067;48.788;9.208;2022-08-03T12:30:33;1.77;;;1.63;;
21810;SDS011;11067;48.788;9.208;2022-08-03T12:33:10;1.80;;;1.60;;
21810;SDS011;11067;48.788;9.208;2022-08-03T12:35:40;1.60;;;1.48;;
21810;SDS011;11067;48.788;9.208;2022-08-03T12:38:06;3.03;;;1.57;;
21810;SDS011;11067;48.788;9.208;2022-08-03T12:40:32;2.00;;;1.80;;
21810;SDS011;11067;48.788;9.208;2022-08-03T12:42:58;3.90;;;1.80;;
21810;SDS011;11067;48.788;9.208;2022-08-03T12:45:26;3.27;;;1.63;;
21810;SDS011;11067;48.788;9.208;2022-08-03T12:47:56;2.00;;;1.30;;
21810;SDS011;11067;48.788;9.208;2022-08-03T12:50:24;2.28;;;1.80;;
21810;SDS011;11067;48.788;9.208;2022-08-03T12:52:54;2.75;;;1.80;;
21810;SDS011;11067;48.788;9.208;2022-08-03T12:55:21;1.90;;;1.70;;
21810;SDS011;11067;48.788;9.208;2022-08-03T12:57:48;2.40;;;1.60;;
21810;SDS011;11067;48.788;9.208;2022-08-03T13:00:15;2.10;;;1.60;;
21810;SDS011;11067;48.788;9.208;2022-08-03T13:02:43;1.80;;;1.50;;
21810;SDS011;11067;48.788;9.208;2022-08-03T13:05:09;4.07;;;2.03;;
21810;SDS011;11067;48.788;9.208;2022-08-03T13:07:40;3.60;;;1.70;;
21810;SDS011;11067;48.788;9.208;2022-08-03T13:10:09;2.00;;;1.57;;
21810;SDS011;11067;48.788;9.208;2022-08-03T13:12:48;4.10;;;1.90;;
21810;SDS011;11067;48.788;9.208;2022-08-03T13:15:14;2.20;;;1.58;;
21810;SDS011;11067;48.788;9.208;2022-08-03T13:17:40;3.45;;;1.60;;
21810;SDS011;11067;48.788;9.208;2022-08-03T13:20:07;1.88;;;1.70;;
21810;SDS011;11067;48.788;9.208;2022-08-03T13:22:32;1.80;;;1.70;;
21810;SDS011;11067;48.788;9.208;2022-08-03T13:24:58;1.90;;;1.70;;
21810;SDS011;11067;48.788;9.208;2022-08-03T13:27:25;3.33;;;1.67;;
21810;SDS011;11067;48.788;9.208;2022-08-03T13:29:52;2.65;;;1.60;;
21810;SDS011;11067;48.788;9.208;2022-08-03T13:32:18;3.40;;;1.90;;
21810;SDS011;11067;48.788;9.208;2022-08-03T13:34:44;2.10;;;1.77;;
21810;SDS011;11067;48.788;9.208;2022-08-03T13:37:11;1.60;;;1.50;;
21810;SDS011;11067;48.788;9.208;2022-08-03T13:39:37;2.67;;;1.70;;
21810;SDS011;11067;48.788;9.208;2022-08-03T13:42:03;2.20;;;1.70;;
21810;SDS011;11067;48.788;9.208;2022-08-03T13:44:29;3.77;;;1.80;;
21810;SDS011;11067;48.788;9.208;2022-08-03T13:46:56;2.53;;;1.80;;
21810;SDS011;11067;48.788;9.208;2022-08-03T13:49:21;3.35;;;1.80;;
21810;SDS011;11067;48.788;9.208;2022-08-03T13:51:47;1.83;;;1.53;;
21810;SDS011;11067;48.788;9.208;2022-08-03T13:54:12;3.30;;;1.63;;
21810;SDS011;11067;48.788;9.208;2022-08-03T13:56:38;2.88;;;1.83;;
21810;SDS011;11067;48.788;9.208;2022-08-03T13:59:04;4.07;;;1.60;;
21810;SDS011;11067;48.788;9.208;2022-08-03T14:01:30;1.77;;;1.60;;
21810;SDS011;11067;48.788;9.208;2022-08-03T14:03:56;2.15;;;1.95;;
21810;SDS011;11067;48.788;9.208;2022-08-03T14:06:22;5.05;;;1.83;;
21810;SDS011;11067;48.788;9.208;2022-08-03T14:08:48;3.70;;;1.70;;
21810;SDS011;11067;48.788;9.208;2022-08-03T14:11:14;2.57;;;1.90;;
21810;SDS011;11067;48.788;9.208;2022-08-03T14:13:40;4.70;;;1.80;;
21810;SDS011;11067;48.788;9.208;2022-08-03T14:16:06;2.30;;;1.75;;
21810;SDS011;11067;48.788;9.208;2022-08-03T14:18:32;3.00;;;1.80;;
21810;SDS011;11067;48.788;9.208;2022-08-03T14:20:58;1.90;;;1.73;;
21810;SDS011;11067;48.788;9.208;2022-08-03T14:23:24;2.20;;;1.70;;
21810;SDS011;11067;48.788;9.208;2022-08-03T14:25:49;3.00;;;1.90;;
21810;SDS011;11067;48.788;9.208;2022-08-03T14:28:15;1.80;;;1.70;;
21810;SDS011;11067;48.788;9.208;2022-08-03T14:30:41;3.30;;;1.63;;
21810;SDS011;11067;48.788;9.208;2022-08-03T14:33:07;1.80;;;1.70;;
21810;SDS011;11067;48.788;9.208;2022-08-03T14:35:32;2.00;;;1.80;;
21810;SDS011;11067;48.788;9.208;2022-08-03T14:37:58;2.33;;;1.90;;
21810;SDS011;11067;48.788;9.208;2022-08-03T14:40:23;2.30;;;1.90;;
21810;SDS011;11067;48.788;9.208;2022-08-03T14:42:49;2.53;;;1.60;;
21810;SDS011;11067;48.788;9.208;2022-08-03T14:45:14;3.63;;;1.67;;
21810;SDS011;11067;48.788;9.208;2022-08-03T14:47:40;2.77;;;1.77;;
21810;SDS011;11067;48.788;9.208;2022-08-03T14:50:06;1.92;;;1.52;;
21810;SDS011;11067;48.788;9.208;2022-08-03T14:52:32;2.85;;;1.80;;
21810;SDS011;11067;48.788;9.208;2022-08-03T14:54:58;2.38;;;1.80;;
21810;SDS011;11067;48.788;9.208;2022-08-03T14:57:24;5.28;;;1.88;;
21810;SDS011;11067;48.788;9.208;2022-08-03T14:59:50;1.90;;;1.67;;
21810;SDS011;11067;48.788;9.208;2022-08-03T15:02:15;2.00;;;1.80;;
21810;SDS011;11067;48.788;9.208;2022-08-03T15:04:41;2.25;;;1.70;;
21810;SDS011;11067;48.788;9.208;2022-08-03T15:07:06;2.08;;;1.85;;
21810;SDS011;11067;48.788;9.208;2022-08-03T15:09:32;1.87;;;1.70;;
21810;SDS011;11067;48.788;9.208;2022-08-03T15:11:59;1.77;;;1.67;;
21810;SDS011;11067;48.788;9.208;2022-08-03T15:14:25;9.52;;;2.55;;
21810;SDS011;11067;48.788;9.208;2022-08-03T15:16:50;1.97;;;1.77;;
21810;SDS011;11067;48.788;9.208;2022-08-03T15:19:16;1.90;;;1.63;;
21810;SDS011;11067;48.788;9.208;2022-08-03T15:21:41;4.43;;;1.93;;